Cedarville, MI (49719)

4:45 PM EST on January 26, 2015 (GMT -0500)
No. 8 Island | Change Station
CLOSE
Current Station
Personal Weather Station
Location: Cedarville, MI
Elevation: 587 ft
Nearby Weather Stations

Elev 587 ft 45.98 °N, 84.31 °W | Updated 2 seconds ago

Overcast
Overcast
17.0 °F
Feels Like 9 °F
N
5.4
Wind Variable Wind from East
Gusts 9.8 mph

Today
High -- | Low -- °F
--% Chance of Precip.
Yesterday
High -- | Low -- °F
Precip. -- in
8:06 AM 5:34 PM
Waxing Crescent, 47% visible
Pressure 29.95 in
Visibility 10.0 miles
Clouds Overcast 3100 ft
Windchill 9 °F
Dew Point 13 °F
Humidity 83%
Rainfall 0.00 in
Snow Depth Not available.
UV 0 out of 12
Pollen .10 out of 12
Air Quality Not available.
Flu Activity Not available.
METAR KMCD 262136Z AUTO 12006KT 10SM OVC031 M06/M12 A2995 RMK AO2 T10601119

More Conditions Fewer Conditions

Pressure 29.95 in
Visibility 10.0 miles
Clouds Overcast 3100 ft
Windchill 9 °F
Dew Point 13 °F
Humidity 83%
Rainfall 0.00 in
Snow Depth Not available.
UV 0 out of 12
Pollen .10 out of 12
Air Quality Not available.
Flu Activity Not available.
METAR KMCD 262136Z AUTO 12006KT 10SM OVC031 M06/M12 A2995 RMK AO2 T10601119

More Conditions Fewer Conditions

Nowcast | as of 4:00 PM EST on January 26, 2015

At 5 PM...partly cloudy. Scattered snow showers. Temperature 18. East winds 8 mph. At 7 PM...partly cloudy. Scattered snow showers. Temperature 15. East winds 8 mph. At 9 PM...partly cloudy. Scattered snow showers. Temperature 15. East winds 9 mph. At 11 PM...partly cloudy. Scattered snow showers. Temperature 13. East winds 9 mph.

×

10-Day Weather Forecast

Almanac

Astronomy

Jan. 26, 2015 Rise Set
Actual Time
Civil Twilight
Nautical Twilight
Astronomical Twilight
Moon
Length of Visible Light
Length of Day
Tomorrow will be .
, % of the Moon is Illuminated

Today's Extremes

State Highs State Lows

Community

WunderPhotos

Upload Photos

1,790,370 photos uploaded!

WunderBlogs® & News

Nearby

Air Quality

  Air Quality AQ Index Pollutant
Not available.

Snow Depth

Station Depth Elevation

Earthquake Activity

City Distance Mag. Time & Date
Minimum magnitude displayed is 2.5.

Coastal Water Temperatures

Place Temperature

Nearby Weather Stations